createdAt,value
2023-04-14T00:01:17.062Z,48.67
2023-04-14T00:03:24.715Z,48.66
2023-04-14T00:05:30.936Z,48.75
2023-04-14T00:07:32.569Z,48.70
2023-04-14T00:09:34.060Z,48.70
2023-04-14T00:11:37.960Z,49.01
2023-04-14T00:13:39.646Z,48.52
2023-04-14T00:15:50.325Z,48.78
2023-04-14T00:17:52.470Z,48.82
2023-04-14T00:19:54.178Z,48.86
2023-04-14T00:22:01.430Z,48.71
2023-04-14T00:24:05.249Z,48.68
2023-04-14T00:26:09.988Z,48.81
2023-04-14T00:28:13.682Z,48.92
2023-04-14T00:30:15.380Z,48.98
2023-04-14T00:32:19.174Z,48.96
2023-04-14T00:34:20.629Z,48.84
2023-04-14T00:36:24.902Z,48.65
2023-04-14T00:38:26.913Z,48.89
2023-04-14T00:40:30.724Z,49.05
2023-04-14T00:42:32.159Z,48.81
2023-04-14T00:44:34.235Z,48.99
2023-04-14T00:46:36.712Z,48.67
2023-04-14T00:48:46.196Z,49.07
2023-04-14T00:50:47.930Z,49.17
2023-04-14T00:52:51.324Z,49.19
2023-04-14T00:54:55.990Z,49.06
2023-04-14T00:56:58.082Z,49.22
2023-04-14T00:59:06.997Z,49.06
2023-04-14T01:01:08.809Z,49.12
2023-04-14T01:03:10.678Z,48.94
2023-04-14T01:05:12.517Z,49.04
2023-04-14T01:07:14.276Z,49.25
2023-04-14T01:09:16.386Z,49.22
2023-04-14T01:11:55.539Z,49.14
2023-04-14T01:14:04.320Z,49.25
2023-04-14T01:16:18.886Z,49.32
2023-04-14T01:18:45.342Z,49.41
2023-04-14T01:20:51.597Z,49.47
2023-04-14T01:23:02.589Z,49.18
2023-04-14T01:25:43.690Z,49.44
2023-04-14T01:28:29.174Z,49.06
2023-04-14T01:30:40.793Z,49.69
2023-04-14T01:32:47.682Z,49.51
2023-04-14T01:34:57.979Z,49.71
2023-04-14T01:37:11.422Z,49.71
2023-04-14T01:39:18.443Z,49.55
2023-04-14T01:41:22.982Z,49.49
2023-04-14T01:43:29.756Z,49.51
2023-04-14T01:45:41.895Z,49.91
2023-04-14T01:47:45.330Z,49.68
2023-04-14T01:49:53.643Z,49.70
2023-04-14T01:51:57.633Z,49.82
2023-04-14T01:54:04.130Z,49.66
2023-04-14T01:56:16.338Z,49.59
2023-04-14T01:58:23.120Z,49.56
2023-04-14T02:00:26.110Z,49.68
2023-04-14T02:02:29.185Z,49.87
2023-04-14T02:04:32.668Z,49.83
2023-04-14T02:06:37.728Z,50.16
2023-04-14T02:08:41.517Z,50.07
2023-04-14T02:10:46.587Z,49.98
2023-04-14T02:12:54.884Z,50.17
2023-04-14T02:14:59.912Z,50.10
2023-04-14T02:17:02.716Z,49.70
2023-04-14T02:19:05.767Z,49.88
2023-04-14T02:21:08.972Z,49.85
2023-04-14T02:23:12.621Z,50.03
2023-04-14T02:25:14.244Z,49.77
2023-04-14T02:27:39.461Z,50.08
2023-04-14T02:29:45.477Z,49.90
2023-04-14T02:32:03.909Z,50.48
2023-04-14T02:34:08.597Z,50.20
2023-04-14T02:36:18.298Z,50.05
2023-04-14T02:38:51.548Z,50.19
2023-04-14T02:40:54.007Z,50.02
2023-04-14T02:43:07.530Z,50.40
2023-04-14T02:45:17.241Z,50.21
2023-04-14T02:47:27.096Z,49.83
2023-04-14T02:49:35.355Z,49.78
2023-04-14T02:51:45.846Z,50.02
2023-04-14T02:53:48.417Z,50.01
2023-04-14T02:56:03.274Z,50.34
2023-04-14T02:58:09.496Z,50.02
2023-04-14T03:00:17.168Z,50.47
2023-04-14T03:02:24.771Z,50.16
2023-04-14T03:04:39.364Z,50.60
2023-04-14T03:06:47.938Z,50.31
2023-04-14T03:08:51.494Z,50.27
2023-04-14T03:10:55.967Z,50.22
2023-04-14T03:13:02.101Z,50.23
2023-04-14T03:15:07.120Z,50.21
2023-04-14T03:17:11.161Z,50.67
2023-04-14T03:19:14.047Z,50.67
2023-04-14T03:21:19.237Z,50.88
2023-04-14T03:23:24.349Z,50.36
2023-04-14T03:25:34.170Z,50.71
2023-04-14T03:27:38.025Z,50.79
2023-04-14T03:29:44.624Z,50.32
2023-04-14T03:31:47.434Z,50.48
2023-04-14T03:33:55.767Z,50.56
2023-04-14T03:36:01.539Z,50.46
2023-04-14T03:38:08.961Z,51.01
2023-04-14T03:40:15.593Z,51.03
2023-04-14T03:42:24.000Z,51.03
2023-04-14T03:44:28.974Z,50.83
2023-04-14T03:46:30.834Z,50.69
2023-04-14T03:48:34.532Z,50.83
2023-04-14T03:50:44.697Z,50.99
2023-04-14T03:52:50.878Z,51.02
2023-04-14T03:54:59.590Z,50.84
2023-04-14T03:57:09.988Z,51.08
2023-04-14T03:59:15.336Z,51.04
2023-04-14T04:01:19.645Z,51.04
2023-04-14T04:03:26.920Z,51.20
2023-04-14T04:05:33.798Z,50.93
2023-04-14T04:07:37.982Z,51.05
2023-04-14T04:09:40.155Z,51.08
2023-04-14T04:11:50.111Z,50.78
2023-04-14T04:13:55.386Z,51.34
2023-04-14T04:15:58.990Z,51.00
2023-04-14T04:18:03.370Z,50.91
2023-04-14T04:20:11.722Z,51.15
2023-04-14T04:22:17.647Z,51.13
2023-04-14T04:24:23.327Z,51.35
2023-04-14T04:26:39.946Z,51.42
2023-04-14T04:28:42.780Z,50.97
2023-04-14T04:30:46.419Z,51.11
2023-04-14T04:32:49.167Z,51.29
2023-04-14T04:34:53.011Z,51.38
2023-04-14T04:36:54.775Z,51.42
2023-04-14T04:39:06.614Z,51.28
2023-04-14T04:41:28.112Z,51.46
2023-04-14T04:43:31.182Z,51.20
2023-04-14T04:45:57.939Z,51.34
2023-04-14T04:48:00.910Z,51.21
2023-04-14T04:50:05.633Z,51.33
2023-04-14T04:52:07.381Z,50.99
2023-04-14T04:54:09.277Z,51.19
2023-04-14T04:56:10.828Z,51.38
2023-04-14T04:58:12.342Z,51.36
2023-04-14T05:00:16.832Z,51.74
2023-04-14T05:02:18.354Z,51.39
2023-04-14T05:04:19.862Z,51.55
2023-04-14T05:06:21.789Z,51.39
2023-04-14T05:08:23.411Z,51.56
2023-04-14T05:10:29.434Z,51.23
2023-04-14T05:12:30.893Z,51.45
2023-04-14T05:14:34.962Z,51.37
2023-04-14T05:16:36.565Z,51.79
2023-04-14T05:18:38.265Z,51.70
2023-04-14T05:20:39.885Z,51.56
2023-04-14T05:22:41.423Z,51.58
2023-04-14T05:24:50.400Z,51.24
2023-04-14T05:27:12.243Z,51.56
2023-04-14T05:29:13.643Z,51.57
2023-04-14T05:31:16.155Z,51.44
2023-04-14T05:33:17.694Z,51.28
2023-04-14T05:35:19.298Z,51.09
2023-04-14T05:37:20.901Z,51.58
2023-04-14T05:39:25.135Z,51.37
2023-04-14T05:41:32.439Z,50.99
2023-04-14T05:43:34.133Z,51.33
2023-04-14T05:45:35.581Z,50.99
2023-04-14T05:47:37.247Z,51.26
2023-04-14T05:49:45.202Z,51.46
2023-04-14T05:52:00.771Z,51.51
2023-04-14T05:54:02.401Z,51.29
2023-04-14T05:56:04.305Z,51.53
2023-04-14T05:58:06.028Z,51.59
2023-04-14T06:00:09.486Z,51.21
2023-04-14T06:02:16.948Z,51.32
2023-04-14T06:04:18.581Z,51.03
2023-04-14T06:06:20.237Z,51.26
2023-04-14T06:08:21.740Z,51.41
2023-04-14T06:10:23.288Z,51.35
2023-04-14T06:12:26.168Z,51.67
2023-04-14T06:14:27.903Z,51.77
2023-04-14T06:16:29.738Z,51.41
2023-04-14T06:18:31.375Z,51.34
2023-04-14T06:20:32.992Z,51.45
2023-04-14T06:22:34.610Z,51.46
2023-04-14T06:24:39.637Z,51.75
2023-04-14T06:26:43.558Z,51.69
2023-04-14T06:28:45.378Z,51.69
2023-04-14T06:30:46.964Z,51.85
2023-04-14T06:32:51.359Z,51.51
2023-04-14T06:34:53.463Z,51.72
2023-04-14T06:36:56.613Z,51.62
2023-04-14T06:38:58.520Z,51.49
2023-04-14T06:41:00.290Z,51.69
2023-04-14T06:43:01.783Z,51.68
2023-04-14T06:45:04.186Z,51.69
2023-04-14T06:47:05.928Z,51.83
2023-04-14T06:49:07.646Z,51.80
2023-04-14T06:51:12.205Z,51.65
2023-04-14T06:53:14.412Z,51.35
2023-04-14T06:55:16.290Z,51.62
2023-04-14T06:57:17.744Z,51.66
2023-04-14T06:59:21.179Z,51.88
2023-04-14T07:01:22.673Z,51.64
2023-04-14T07:03:24.605Z,51.82
2023-04-14T07:05:26.342Z,51.90
2023-04-14T07:07:27.930Z,51.41
2023-04-14T07:09:29.537Z,51.51
2023-04-14T07:11:33.844Z,51.86
2023-04-14T07:13:36.188Z,51.79
2023-04-14T07:15:37.697Z,52.03
2023-04-14T07:17:39.390Z,51.68
2023-04-14T07:19:41.245Z,52.05
2023-04-14T07:21:44.607Z,51.92
2023-04-14T07:23:46.216Z,51.55
2023-04-14T07:25:56.116Z,51.81
2023-04-14T07:28:03.149Z,51.68
2023-04-14T07:30:06.265Z,51.78
2023-04-14T07:32:08.660Z,51.89
2023-04-14T07:34:10.164Z,52.17
2023-04-14T07:36:12.205Z,51.97
2023-04-14T07:38:13.667Z,52.13
2023-04-14T07:40:16.620Z,52.30
2023-04-14T07:42:18.325Z,52.30
2023-04-14T07:44:19.767Z,52.12
2023-04-14T07:46:22.733Z,52.31
2023-04-14T07:48:30.913Z,52.49
2023-04-14T07:50:32.549Z,52.35
2023-04-14T07:52:34.057Z,52.61
2023-04-14T07:54:39.444Z,51.88
2023-04-14T07:56:41.109Z,52.31
2023-04-14T07:58:42.703Z,52.07
2023-04-14T08:00:44.186Z,52.31
2023-04-14T08:02:45.935Z,52.12
2023-04-14T08:04:50.489Z,52.29
2023-04-14T08:06:52.123Z,52.29
2023-04-14T08:08:53.771Z,52.55
2023-04-14T08:11:02.660Z,52.33
2023-04-14T08:13:04.240Z,52.32
2023-04-14T08:15:06.059Z,52.37
2023-04-14T08:17:07.779Z,52.57
2023-04-14T08:19:09.451Z,52.62
2023-04-14T08:21:11.363Z,52.77
2023-04-14T08:23:14.937Z,52.71
2023-04-14T08:25:16.745Z,52.94
2023-04-14T08:27:25.571Z,52.92
2023-04-14T08:29:27.112Z,53.00
2023-04-14T08:31:28.866Z,53.11
2023-04-14T08:33:30.471Z,53.04
2023-04-14T08:35:37.529Z,52.67
2023-04-14T08:37:42.697Z,53.14
2023-04-14T08:39:47.090Z,52.85
2023-04-14T08:41:50.718Z,52.65
2023-04-14T08:43:52.998Z,53.14
2023-04-14T08:45:57.130Z,52.93
2023-04-14T08:48:00.406Z,52.70
2023-04-14T08:50:08.045Z,52.95
2023-04-14T08:52:13.133Z,52.73
2023-04-14T08:54:18.861Z,52.70
2023-04-14T08:56:24.204Z,52.66
2023-04-14T08:58:26.215Z,52.64
2023-04-14T09:00:27.980Z,52.59
2023-04-14T09:02:31.159Z,52.45
2023-04-14T09:04:35.316Z,52.46
2023-04-14T09:06:37.235Z,52.60
2023-04-14T09:08:38.876Z,52.65
2023-04-14T09:10:43.724Z,52.49
2023-04-14T09:12:45.283Z,52.22
2023-04-14T09:14:48.297Z,52.21
2023-04-14T09:16:53.878Z,52.35
2023-04-14T09:18:57.799Z,52.25
2023-04-14T09:21:29.232Z,52.43
2023-04-14T09:23:30.366Z,52.18
2023-04-14T09:25:34.944Z,52.37
2023-04-14T09:27:37.252Z,52.12
2023-04-14T09:29:39.194Z,52.40
2023-04-14T09:31:44.696Z,52.12
2023-04-14T09:33:50.982Z,51.89
2023-04-14T09:35:52.769Z,51.57
2023-04-14T09:37:54.364Z,51.77
2023-04-14T09:39:56.837Z,51.89
2023-04-14T09:41:59.628Z,51.79
2023-04-14T09:44:08.269Z,51.82
2023-04-14T09:46:10.788Z,51.71
2023-04-14T09:48:13.042Z,51.56
2023-04-14T09:50:15.244Z,51.37
2023-04-14T09:52:16.979Z,51.38
2023-04-14T09:54:25.799Z,51.42
2023-04-14T09:56:27.905Z,51.29
2023-04-14T09:58:42.421Z,51.64
2023-04-14T10:00:45.593Z,51.53
2023-04-14T10:02:51.974Z,51.50
2023-04-14T10:05:07.124Z,51.66
2023-04-14T10:07:08.885Z,51.55
2023-04-14T10:09:21.658Z,51.68
2023-04-14T10:11:25.816Z,51.76
2023-04-14T10:13:27.236Z,51.58
2023-04-14T10:15:31.823Z,51.53
2023-04-14T10:17:34.179Z,51.40
2023-04-14T10:19:39.647Z,51.44
2023-04-14T10:21:43.624Z,51.07
2023-04-14T10:23:46.534Z,51.29
2023-04-14T10:25:50.342Z,51.13
2023-04-14T10:27:52.331Z,51.12
2023-04-14T10:29:54.630Z,51.17
2023-04-14T10:32:03.177Z,51.08
2023-04-14T10:34:10.919Z,50.99
2023-04-14T10:36:13.322Z,50.96
2023-04-14T10:38:15.340Z,50.95
2023-04-14T10:40:16.906Z,50.78
2023-04-14T10:42:19.526Z,50.86
2023-04-14T10:44:23.115Z,50.68
2023-04-14T10:46:26.047Z,50.74
2023-04-14T10:49:17.008Z,50.81
2023-04-14T10:51:57.261Z,50.62
2023-04-14T10:54:55.980Z,50.50
2023-04-14T11:00:40.342Z,50.40
2023-04-14T11:03:15.439Z,50.26
2023-04-14T11:05:20.945Z,50.09
2023-04-14T11:07:45.138Z,50.24
2023-04-14T11:09:51.861Z,49.83
2023-04-14T11:11:56.778Z,49.53
2023-04-14T11:14:11.335Z,49.46
2023-04-14T11:16:14.701Z,49.71
2023-04-14T11:18:28.904Z,49.86
2023-04-14T11:20:30.477Z,49.77
2023-04-14T11:22:42.563Z,49.83
2023-04-14T11:24:46.504Z,49.62
2023-04-14T11:26:48.538Z,49.92
2023-04-14T11:29:04.240Z,49.46
2023-04-14T11:31:13.290Z,49.64
2023-04-14T11:33:17.110Z,49.37
2023-04-14T11:35:24.061Z,49.23
2023-04-14T11:37:26.955Z,49.23
2023-04-14T11:39:37.237Z,49.32
2023-04-14T11:41:39.251Z,48.90
2023-04-14T11:43:49.253Z,48.66
2023-04-14T11:45:52.327Z,48.59
2023-04-14T11:48:01.002Z,48.08
2023-04-14T11:50:05.006Z,47.89
2023-04-14T11:52:11.456Z,47.95
2023-04-14T11:54:13.235Z,47.53
2023-04-14T11:56:21.172Z,47.37
2023-04-14T11:58:25.015Z,47.32
2023-04-14T12:00:29.713Z,47.42
2023-04-14T12:02:31.436Z,46.87
2023-04-14T12:04:33.123Z,47.19
2023-04-14T12:06:37.143Z,46.51
2023-04-14T12:08:40.726Z,46.90
2023-04-14T12:10:42.340Z,46.87
2023-04-14T12:12:43.979Z,46.69
2023-04-14T12:14:48.055Z,47.13
2023-04-14T12:16:49.709Z,47.13
2023-04-14T12:18:51.663Z,47.35
2023-04-14T12:21:09.755Z,47.05
2023-04-14T12:23:15.469Z,47.01
2023-04-14T12:25:17.577Z,47.14
2023-04-14T12:27:22.432Z,47.28
2023-04-14T12:29:23.903Z,47.05
2023-04-14T12:31:32.020Z,46.83
2023-04-14T12:33:34.175Z,47.01
2023-04-14T12:35:35.767Z,47.00
2023-04-14T12:37:38.496Z,47.49
2023-04-14T12:39:50.886Z,48.05
2023-04-14T12:41:52.431Z,48.46
2023-04-14T12:43:54.242Z,48.17
2023-04-14T12:45:55.855Z,48.55
2023-04-14T12:47:57.839Z,48.86
2023-04-14T12:50:00.853Z,49.28
2023-04-14T12:52:04.563Z,49.72
2023-04-14T12:54:07.478Z,49.60
2023-04-14T12:56:22.584Z,50.48
2023-04-14T12:58:24.086Z,50.43
2023-04-14T13:00:27.770Z,51.25
2023-04-14T13:02:30.302Z,50.94
2023-04-14T13:04:39.614Z,51.33
2023-04-14T13:06:41.462Z,51.70
2023-04-14T13:08:47.072Z,52.90
2023-04-14T13:10:48.612Z,52.61
2023-04-14T13:12:50.903Z,52.55
2023-04-14T13:14:53.265Z,53.14
2023-04-14T13:16:56.046Z,52.76
2023-04-14T13:19:02.478Z,52.91
2023-04-14T13:21:04.804Z,53.00
2023-04-14T13:23:07.819Z,52.89
2023-04-14T13:25:09.488Z,52.63
2023-04-14T13:27:11.840Z,53.26
2023-04-14T13:29:13.513Z,53.66
2023-04-14T13:31:18.124Z,54.09
2023-04-14T13:33:20.810Z,53.87
2023-04-14T13:35:22.587Z,52.83
2023-04-14T13:37:24.433Z,52.89
2023-04-14T13:39:28.562Z,53.03
2023-04-14T13:41:31.052Z,52.94
2023-04-14T13:43:35.138Z,52.56
2023-04-14T13:45:41.054Z,52.31
2023-04-14T13:47:42.707Z,52.56
2023-04-14T13:49:47.001Z,52.05
2023-04-14T13:51:51.008Z,50.52
2023-04-14T13:53:57.909Z,49.64
2023-04-14T13:55:59.487Z,49.90
2023-04-14T13:58:03.915Z,50.34
2023-04-14T14:00:07.825Z,48.98
2023-04-14T14:02:10.396Z,49.28
2023-04-14T14:04:12.103Z,48.59
2023-04-14T14:06:14.289Z,48.41
2023-04-14T14:08:18.598Z,48.73
2023-04-14T14:10:20.293Z,48.81
2023-04-14T14:12:22.777Z,49.30
2023-04-14T14:14:27.339Z,48.95
2023-04-14T14:16:36.703Z,48.82
2023-04-14T14:18:39.821Z,49.17
2023-04-14T14:20:41.644Z,49.09
2023-04-14T14:22:43.121Z,49.37
2023-04-14T14:24:45.138Z,49.36
2023-04-14T14:26:46.668Z,49.21
2023-04-14T14:28:48.509Z,48.98
2023-04-14T14:30:50.474Z,49.03
2023-04-14T14:32:55.382Z,49.20
2023-04-14T14:34:57.044Z,49.08
2023-04-14T14:36:58.603Z,49.66
2023-04-14T14:39:00.635Z,49.84
2023-04-14T14:41:18.827Z,49.96
2023-04-14T14:43:20.661Z,50.09
2023-04-14T14:45:30.319Z,50.06
2023-04-14T14:47:33.433Z,50.36
2023-04-14T14:49:35.605Z,50.17
2023-04-14T14:51:38.475Z,50.29
2023-04-14T14:53:40.032Z,50.18
2023-04-14T14:55:42.002Z,50.31
2023-04-14T14:57:43.456Z,50.46
2023-04-14T14:59:45.032Z,50.40
2023-04-14T15:01:46.720Z,50.25
2023-04-14T15:03:51.506Z,50.26
2023-04-14T15:05:56.254Z,50.28
2023-04-14T15:08:00.763Z,50.01
2023-04-14T15:10:04.738Z,49.95
2023-04-14T15:12:06.477Z,49.10
2023-04-14T15:14:09.184Z,48.75
2023-04-14T15:16:13.395Z,47.85
2023-04-14T15:18:14.961Z,47.71
2023-04-14T15:20:16.878Z,47.19
2023-04-14T15:22:18.378Z,47.28
2023-04-14T15:24:28.670Z,46.45
2023-04-14T15:26:30.191Z,46.60
2023-04-14T15:28:31.730Z,46.55
2023-04-14T15:30:33.172Z,46.18
2023-04-14T15:32:35.029Z,45.99
2023-04-14T15:34:37.397Z,45.78
2023-04-14T15:36:42.991Z,45.67
2023-04-14T15:38:44.614Z,45.67
2023-04-14T15:40:49.067Z,45.41
2023-04-14T15:42:50.754Z,45.45
2023-04-14T15:44:52.316Z,45.32
2023-04-14T15:46:55.909Z,44.97
2023-04-14T15:48:57.542Z,44.82
2023-04-14T15:50:59.174Z,45.05
2023-04-14T15:53:01.408Z,45.18
2023-04-14T15:55:09.281Z,44.84
2023-04-14T15:57:11.201Z,44.73
2023-04-14T15:59:13.279Z,44.54
2023-04-14T16:01:16.930Z,44.52
2023-04-14T16:03:21.544Z,44.44
2023-04-14T16:05:23.366Z,44.66
2023-04-14T16:07:25.824Z,44.68
2023-04-14T16:09:27.435Z,44.42
2023-04-14T16:11:29.920Z,44.29
2023-04-14T16:13:31.421Z,44.63
2023-04-14T16:15:34.066Z,44.57
2023-04-14T16:17:35.755Z,44.36
2023-04-14T16:19:39.958Z,44.53
2023-04-14T16:21:41.869Z,44.48
2023-04-14T16:23:43.440Z,44.26
2023-04-14T16:25:51.302Z,44.03
2023-04-14T16:27:53.438Z,44.14
2023-04-14T16:29:57.879Z,43.79
2023-04-14T16:32:01.974Z,44.14
2023-04-14T16:34:04.220Z,44.11
2023-04-14T16:36:07.227Z,44.17
2023-04-14T16:38:09.302Z,44.28
2023-04-14T16:40:11.463Z,44.40
2023-04-14T16:42:13.206Z,44.17
2023-04-14T16:44:14.968Z,44.04
2023-04-14T16:46:16.826Z,43.80
2023-04-14T16:48:18.969Z,43.60
2023-04-14T16:50:20.636Z,43.65
2023-04-14T16:52:22.419Z,43.62
2023-04-14T16:54:24.074Z,43.76
2023-04-14T16:56:25.613Z,43.47
2023-04-14T16:58:27.159Z,43.50
2023-04-14T17:00:28.818Z,43.61
2023-04-14T17:02:31.759Z,43.34
2023-04-14T17:04:36.449Z,43.54
2023-04-14T17:06:38.155Z,43.54
2023-04-14T17:08:39.676Z,43.69
2023-04-14T17:10:42.003Z,43.73
2023-04-14T17:12:44.960Z,43.98
2023-04-14T17:14:46.537Z,46.09
2023-04-14T17:16:52.793Z,48.12
2023-04-14T17:18:54.316Z,49.68
2023-04-14T17:20:58.540Z,50.33
2023-04-14T17:23:00.207Z,51.31
2023-04-14T17:25:04.593Z,51.95
2023-04-14T17:27:06.411Z,52.43
2023-04-14T17:29:09.208Z,53.58
2023-04-14T17:31:16.011Z,54.04
2023-04-14T17:33:18.519Z,54.38
2023-04-14T17:35:20.100Z,54.35
2023-04-14T17:37:21.897Z,54.98
2023-04-14T17:39:27.756Z,54.78
2023-04-14T17:41:29.992Z,55.18
2023-04-14T17:43:31.658Z,55.17
2023-04-14T17:45:34.646Z,54.32
2023-04-14T17:47:38.307Z,53.03
2023-04-14T17:49:40.127Z,51.88
2023-04-14T17:51:51.547Z,50.93
2023-04-14T17:53:53.066Z,50.20
2023-04-14T17:55:56.113Z,49.56
2023-04-14T17:58:00.842Z,49.50
2023-04-14T18:00:04.237Z,50.17
2023-04-14T18:02:15.525Z,50.92
2023-04-14T18:04:21.549Z,51.32
2023-04-14T18:06:23.388Z,51.50
2023-04-14T18:08:24.909Z,51.55
2023-04-14T18:10:26.523Z,51.71
2023-04-14T18:12:29.268Z,51.90
2023-04-14T18:14:35.459Z,51.79
2023-04-14T18:16:37.457Z,51.78
2023-04-14T18:18:39.190Z,51.75
2023-04-14T18:20:44.754Z,51.73
2023-04-14T18:22:46.260Z,51.95
2023-04-14T18:24:48.392Z,51.89
2023-04-14T18:26:51.795Z,51.92
2023-04-14T18:28:56.344Z,51.97
2023-04-14T18:31:01.187Z,52.27
2023-04-14T18:33:04.500Z,52.66
2023-04-14T18:35:07.023Z,52.93
2023-04-14T18:37:08.708Z,53.19
2023-04-14T18:39:10.158Z,53.34
2023-04-14T18:41:11.921Z,53.42
2023-04-14T18:43:15.023Z,53.51
2023-04-14T18:45:19.373Z,53.41
2023-04-14T18:47:20.998Z,53.45
2023-04-14T18:49:23.662Z,53.69
2023-04-14T18:51:25.954Z,53.58
2023-04-14T18:53:41.766Z,53.39
2023-04-14T18:55:45.709Z,53.43
2023-04-14T18:57:48.507Z,53.40
2023-04-14T18:59:50.137Z,53.63
2023-04-14T19:01:52.790Z,53.62
2023-04-14T19:03:56.459Z,53.40
2023-04-14T19:05:58.949Z,53.59
2023-04-14T19:08:01.145Z,53.35
2023-04-14T19:10:04.927Z,53.32
2023-04-14T19:12:09.306Z,53.17
2023-04-14T19:14:18.838Z,53.31
2023-04-14T19:16:23.398Z,53.16
2023-04-14T19:18:25.774Z,53.29
2023-04-14T19:20:30.773Z,53.23
2023-04-14T19:22:32.396Z,53.08
2023-04-14T19:24:35.891Z,53.13
2023-04-14T19:26:41.891Z,53.32
2023-04-14T19:28:45.843Z,53.18
2023-04-14T19:30:47.824Z,53.09
2023-04-14T19:32:50.554Z,53.06
2023-04-14T19:34:52.571Z,53.08
2023-04-14T19:36:54.399Z,52.83
2023-04-14T19:38:58.676Z,52.57
2023-04-14T19:41:00.264Z,52.41
2023-04-14T19:43:01.938Z,52.62
2023-04-14T19:45:03.657Z,52.62
2023-04-14T19:47:06.460Z,52.69
2023-04-14T19:49:08.162Z,52.68
2023-04-14T19:51:09.921Z,52.84
2023-04-14T19:53:16.861Z,52.91
2023-04-14T19:55:18.809Z,52.91
2023-04-14T19:57:21.812Z,52.75
2023-04-14T19:59:26.068Z,52.77
2023-04-14T20:01:28.522Z,52.95
2023-04-14T20:03:33.074Z,52.85
2023-04-14T20:05:36.585Z,52.83
2023-04-14T20:07:38.823Z,52.91
2023-04-14T20:09:44.940Z,52.84
2023-04-14T20:11:46.925Z,52.85
2023-04-14T20:13:48.631Z,52.80
2023-04-14T20:15:53.765Z,52.63
2023-04-14T20:17:58.355Z,52.78
2023-04-14T20:20:01.427Z,52.78
2023-04-14T20:22:10.335Z,52.78
2023-04-14T20:24:11.840Z,52.78
2023-04-14T20:26:13.461Z,52.63
2023-04-14T20:28:19.337Z,52.63
2023-04-14T20:30:21.074Z,52.68
2023-04-14T20:32:23.794Z,52.46
2023-04-14T20:34:25.566Z,52.20
2023-04-14T20:36:27.083Z,51.10
2023-04-14T20:38:29.352Z,50.24
2023-04-14T20:40:33.858Z,49.11
2023-04-14T20:42:35.486Z,48.74
2023-04-14T20:44:37.139Z,48.55
2023-04-14T20:46:39.505Z,48.07
2023-04-14T20:48:41.198Z,47.75
2023-04-14T20:50:44.451Z,47.41
2023-04-14T20:52:46.521Z,47.41
2023-04-14T20:54:48.042Z,47.19
2023-04-14T20:56:50.458Z,47.08
2023-04-14T20:58:51.968Z,47.09
2023-04-14T21:00:53.738Z,46.94
2023-04-14T21:02:58.079Z,46.83
2023-04-14T21:04:59.824Z,46.70
2023-04-14T21:07:01.588Z,46.95
2023-04-14T21:09:03.984Z,46.79
2023-04-14T21:11:16.973Z,46.96
2023-04-14T21:15:26.839Z,46.85
2023-04-14T21:15:54.313Z,46.72
2023-04-14T21:17:59.309Z,46.74
2023-04-14T21:20:02.108Z,46.76
2023-04-14T21:22:03.806Z,47.07
2023-04-14T21:24:05.922Z,47.04
2023-04-14T21:26:08.154Z,47.30
2023-04-14T21:28:12.166Z,47.11
2023-04-14T21:30:19.951Z,47.07
2023-04-14T21:32:21.833Z,46.93
2023-04-14T21:34:23.425Z,47.22
2023-04-14T21:36:25.129Z,47.21
2023-04-14T21:38:28.054Z,47.28
2023-04-14T21:40:30.346Z,47.05
2023-04-14T21:42:32.615Z,47.44
2023-04-14T21:44:34.203Z,47.52
2023-04-14T21:46:35.736Z,47.38
2023-04-14T21:48:37.651Z,47.53
2023-04-14T21:50:39.669Z,47.52
2023-04-14T21:52:43.908Z,47.42
2023-04-14T21:54:46.568Z,47.61
2023-04-14T21:56:51.112Z,47.71
2023-04-14T21:58:52.578Z,47.60
2023-04-14T22:00:55.219Z,47.55
2023-04-14T22:02:59.903Z,47.55
2023-04-14T22:05:02.248Z,47.59
2023-04-14T22:07:08.577Z,47.82
2023-04-14T22:09:10.393Z,47.79
2023-04-14T22:11:16.855Z,47.80
2023-04-14T22:13:22.748Z,48.08
2023-04-14T22:15:24.453Z,47.81
2023-04-14T22:17:26.064Z,47.92
2023-04-14T22:19:28.753Z,47.86
2023-04-14T22:21:31.584Z,47.94
2023-04-14T22:23:33.583Z,48.07
2023-04-14T22:25:35.611Z,48.01
2023-04-14T22:27:40.068Z,48.22
2023-04-14T22:29:43.684Z,48.22
2023-04-14T22:31:45.928Z,48.18
2023-04-14T22:33:48.667Z,48.25
2023-04-14T22:36:03.981Z,48.25
2023-04-14T22:38:07.817Z,48.32
2023-04-14T22:40:12.977Z,48.22
2023-04-14T22:42:21.800Z,48.48
2023-04-14T22:44:23.409Z,48.14
2023-04-14T22:46:24.954Z,48.52
2023-04-14T22:48:26.850Z,48.56
2023-04-14T22:50:28.533Z,48.69
2023-04-14T22:52:30.803Z,48.62
2023-04-14T22:54:32.732Z,48.65
2023-04-14T22:56:34.585Z,48.72
2023-04-14T22:58:41.869Z,48.85
2023-04-14T23:00:45.229Z,48.77
2023-04-14T23:02:48.151Z,48.72
2023-04-14T23:04:49.856Z,48.75
2023-04-14T23:06:51.405Z,48.74
2023-04-14T23:08:55.606Z,48.73
2023-04-14T23:10:57.122Z,48.89
2023-04-14T23:13:01.573Z,48.85
2023-04-14T23:15:06.701Z,48.90
2023-04-14T23:17:08.304Z,48.78
2023-04-14T23:19:17.557Z,48.89
2023-04-14T23:21:21.929Z,48.96
2023-04-14T23:23:23.950Z,49.03
2023-04-14T23:25:25.525Z,48.99
2023-04-14T23:27:31.035Z,48.68
2023-04-14T23:29:32.526Z,49.02
2023-04-14T23:31:37.033Z,48.99
2023-04-14T23:33:38.700Z,48.99
2023-04-14T23:35:40.512Z,48.84
2023-04-14T23:37:42.153Z,48.88
2023-04-14T23:39:43.651Z,48.86
2023-04-14T23:41:45.448Z,49.01
2023-04-14T23:43:49.068Z,48.91
2023-04-14T23:45:50.704Z,48.96
2023-04-14T23:47:52.285Z,49.19
2023-04-14T23:49:54.037Z,49.09
2023-04-14T23:51:55.493Z,48.91
2023-04-14T23:54:01.794Z,49.08
2023-04-14T23:56:04.218Z,49.33
2023-04-14T23:58:08.720Z,49.02
